Time;durP1;ratioP1;P1;durP2;ratioP2;P2;SDS_P1;SDS_P2;PMS_P1;PMS_P2;Temp;Humidity;BMP_temperature;BMP_pressure;BME280_temperature;BME280_humidity;BME280_pressure;Samples;Min_cycle;Max_cycle;Signal;HPM_P1;HPM_P2
2022/05/12 00:00:24;;;;;;;4.20;3.80;;;;;;;15.58;100.00;96266.97;5052284;27;105621;-63
2022/05/12 00:02:53;;;;;;;4.27;3.60;;;;;;;15.38;100.00;96267.94;5054941;27;105352;-62
2022/05/12 00:05:22;;;;;;;4.67;3.77;;;;;;;15.54;100.00;96265.94;5055894;27;101991;-63
2022/05/12 00:07:49;;;;;;;4.17;3.63;;;;;;;15.65;100.00;96268.19;5055920;27;106449;-63
2022/05/12 00:10:18;;;;;;;6.13;3.53;;;;;;;15.59;100.00;96273.91;5055293;27;105372;-63
2022/05/12 00:12:46;;;;;;;4.17;3.87;;;;;;;15.48;100.00;96267.84;5055637;27;101842;-63
2022/05/12 00:15:18;;;;;;;5.90;3.90;;;;;;;15.48;100.00;96275.09;5074324;27;102872;-63
2022/05/12 00:17:45;;;;;;;5.13;3.90;;;;;;;15.46;100.00;96277.25;5075358;27;105575;-62
2022/05/12 00:20:16;;;;;;;6.80;4.27;;;;;;;15.44;100.00;96268.72;5072471;27;104732;-62
2022/05/12 00:22:43;;;;;;;4.90;4.40;;;;;;;15.53;100.00;96270.47;5073061;27;103131;-63
2022/05/12 00:25:12;;;;;;;4.57;4.00;;;;;;;15.24;100.00;96267.00;5055447;27;102564;-63
2022/05/12 00:27:38;;;;;;;4.23;3.83;;;;;;;15.23;100.00;96273.44;5055593;27;104796;-62
2022/05/12 00:30:09;;;;;;;6.37;4.47;;;;;;;15.02;100.00;96274.69;5054904;27;105782;-62
2022/05/12 00:32:36;;;;;;;5.10;4.47;;;;;;;15.19;100.00;96269.72;5055590;27;102002;-62
2022/05/12 00:35:04;;;;;;;5.67;4.30;;;;;;;15.25;100.00;96278.50;5073726;27;103221;-62
2022/05/12 00:37:32;;;;;;;4.70;4.30;;;;;;;15.12;100.00;96274.59;5058178;27;105305;-63
2022/05/12 00:39:59;;;;;;;4.43;4.03;;;;;;;15.19;100.00;96274.25;5055317;27;105590;-63
2022/05/12 00:42:26;;;;;;;4.40;4.00;;;;;;;14.96;100.00;96275.00;5071487;27;105420;-63
2022/05/12 00:44:54;;;;;;;4.57;4.17;;;;;;;15.03;100.00;96278.16;5073816;27;101853;-63
2022/05/12 00:47:21;;;;;;;6.57;4.23;;;;;;;14.96;100.00;96280.34;5055333;27;105427;-63
2022/05/12 00:49:52;;;;;;;4.73;4.33;;;;;;;15.12;100.00;96276.47;5054542;27;105343;-63
2022/05/12 00:52:22;;;;;;;4.47;3.87;;;;;;;15.14;100.00;96274.31;5055322;27;102066;-62
2022/05/12 00:54:55;;;;;;;4.33;4.03;;;;;;;15.18;100.00;96268.13;5072188;27;103644;-62
2022/05/12 00:57:28;;;;;;;4.50;4.10;;;;;;;15.09;100.00;96279.72;5054281;27;105526;-63
2022/05/12 00:59:57;;;;;;;7.33;4.00;;;;;;;14.85;100.00;96276.16;5058522;27;101871;-63
2022/05/12 01:02:24;;;;;;;5.47;4.10;;;;;;;14.80;100.00;96273.53;5054551;27;104036;-62
2022/05/12 01:04:52;;;;;;;4.73;4.33;;;;;;;14.90;100.00;96276.13;5072137;27;101807;-62
2022/05/12 01:07:19;;;;;;;4.50;4.10;;;;;;;15.21;100.00;96269.44;5054859;27;103592;-62
2022/05/12 01:09:47;;;;;;;4.80;4.33;;;;;;;15.01;100.00;96275.78;5072528;27;103099;-62
2022/05/12 01:12:15;;;;;;;4.93;4.33;;;;;;;15.13;100.00;96278.06;5072427;27;101906;-62
2022/05/12 01:14:42;;;;;;;4.17;3.57;;;;;;;15.21;100.00;96275.59;5054350;27;103964;-62
2022/05/12 01:17:10;;;;;;;4.67;4.00;;;;;;;15.23;100.00;96269.94;5072388;27;102752;-62
2022/05/12 01:19:39;;;;;;;5.63;3.90;;;;;;;15.27;100.00;96265.63;5054621;27;101795;-62
2022/05/12 01:22:09;;;;;;;5.93;4.40;;;;;;;15.10;100.00;96275.97;5057494;27;105006;-62
2022/05/12 01:24:40;;;;;;;6.00;3.90;;;;;;;14.84;100.00;96272.69;5072842;27;101881;-63
2022/05/12 01:27:22;;;;;;;4.10;3.70;;;;;;;14.85;100.00;96268.13;5072967;27;102535;-62
2022/05/12 01:29:51;;;;;;;4.60;3.90;;;;;;;15.04;100.00;96266.38;5072587;27;102916;-62
2022/05/12 01:32:19;;;;;;;3.80;3.43;;;;;;;15.04;100.00;96267.16;5054388;27;101949;-63
2022/05/12 01:34:46;;;;;;;5.03;3.90;;;;;;;14.84;100.00;96267.34;5054564;27;105800;-62
2022/05/12 01:37:13;;;;;;;4.50;4.10;;;;;;;14.89;100.00;96275.31;5072146;27;102927;-63
2022/05/12 01:39:42;;;;;;;4.80;3.73;;;;;;;14.60;100.00;96269.13;5072774;27;102386;-62
2022/05/12 01:42:11;;;;;;;4.00;3.57;;;;;;;14.69;100.00;96266.66;5072811;27;102367;-62
2022/05/12 01:44:40;;;;;;;4.87;3.73;;;;;;;14.60;100.00;96276.34;5075533;27;102860;-63
2022/05/12 01:47:08;;;;;;;4.30;4.00;;;;;;;14.61;100.00;96275.28;5072893;27;102433;-63
2022/05/12 01:49:36;;;;;;;4.70;3.63;;;;;;;14.56;100.00;96270.75;5053846;27;103951;-62
2022/05/12 01:52:04;;;;;;;4.63;4.00;;;;;;;14.54;100.00;96272.91;5072620;27;101952;-62
2022/05/12 01:54:32;;;;;;;4.93;4.40;;;;;;;14.35;100.00;96279.19;5072521;27;104045;-63
2022/05/12 01:57:00;;;;;;;5.50;4.00;;;;;;;14.25;100.00;96280.03;5071719;27;102825;-63
2022/05/12 01:59:27;;;;;;;4.10;3.70;;;;;;;14.06;100.00;96286.25;5072290;27;101856;-63
2022/05/12 02:01:54;;;;;;;7.27;3.93;;;;;;;14.10;100.00;96288.09;5054186;27;103822;-62
2022/05/12 02:04:22;;;;;;;4.30;3.90;;;;;;;14.14;100.00;96288.34;5053403;27;106406;-63
2022/05/12 02:06:49;;;;;;;4.23;3.93;;;;;;;14.20;100.00;96292.63;5057054;27;102241;-62
2022/05/12 02:09:17;;;;;;;6.03;4.10;;;;;;;14.01;100.00;96294.31;5071763;27;102642;-63
2022/05/12 02:11:44;;;;;;;4.63;4.20;;;;;;;14.08;100.00;96300.97;5070839;27;101835;-63
2022/05/12 02:14:13;;;;;;;7.27;4.33;;;;;;;14.12;100.00;96298.53;5072478;27;102579;-63
2022/05/12 02:16:41;;;;;;;4.50;4.17;;;;;;;14.06;100.00;96297.72;5070095;27;106155;-63
2022/05/12 02:19:09;;;;;;;5.57;3.97;;;;;;;14.06;100.00;96296.94;5053722;27;102160;-62
2022/05/12 02:21:37;;;;;;;4.77;4.00;;;;;;;14.07;100.00;96295.88;5072292;27;102391;-62
2022/05/12 02:24:05;;;;;;;5.40;4.00;;;;;;;14.02;100.00;96298.56;5068962;27;105525;-62
2022/05/12 02:26:32;;;;;;;4.50;4.10;;;;;;;14.05;100.00;96306.03;5072185;27;101832;-63
2022/05/12 02:29:00;;;;;;;4.67;3.90;;;;;;;13.91;100.00;96305.81;5073501;27;105614;-63
2022/05/12 02:31:28;;;;;;;5.47;4.23;;;;;;;13.65;100.00;96309.66;5070486;27;102039;-63
2022/05/12 02:33:55;;;;;;;4.83;3.77;;;;;;;13.86;100.00;96297.03;5072185;27;102720;-62
2022/05/12 02:36:22;;;;;;;4.00;3.70;;;;;;;13.88;100.00;96302.88;5069877;27;105954;-63
2022/05/12 02:38:49;;;;;;;7.40;4.33;;;;;;;13.84;100.00;96316.00;5071675;27;101845;-62
2022/05/12 02:41:16;;;;;;;6.83;4.60;;;;;;;13.82;100.00;96312.81;5071992;27;102935;-63
2022/05/12 02:43:43;;;;;;;5.17;4.30;;;;;;;13.89;100.00;96315.97;5071246;27;103193;-62
2022/05/12 02:46:13;;;;;;;6.90;4.27;;;;;;;13.80;100.00;96319.50;5070120;27;101935;-63
2022/05/12 02:48:44;;;;;;;4.40;4.00;;;;;;;14.06;100.00;96315.66;5074897;27;102322;-62
2022/05/12 02:51:12;;;;;;;4.50;3.53;;;;;;;14.26;100.00;96318.28;5072107;27;101857;-63
2022/05/12 02:53:39;;;;;;;4.50;3.83;;;;;;;14.31;100.00;96307.53;5071689;27;102689;-63
2022/05/12 02:56:08;;;;;;;4.10;3.63;;;;;;;14.39;100.00;96315.00;5070968;27;103287;-62
2022/05/12 02:58:36;;;;;;;6.87;3.70;;;;;;;14.45;100.00;96312.00;5053149;27;101947;-63
2022/05/12 03:01:05;;;;;;;6.37;4.17;;;;;;;14.58;100.00;96307.94;5053264;27;103987;-62
2022/05/12 03:03:31;;;;;;;4.17;3.80;;;;;;;14.78;100.00;96305.13;5052370;27;104329;-62
2022/05/12 03:06:00;;;;;;;4.17;3.50;;;;;;;14.89;100.00;96306.66;5069915;27;101937;-62
2022/05/12 03:08:27;;;;;;;5.23;3.90;;;;;;;14.94;100.00;96310.09;5052909;27;105701;-63
2022/05/12 03:10:54;;;;;;;6.57;3.90;;;;;;;15.00;100.00;96308.19;5072951;27;105704;-63
2022/05/12 03:13:21;;;;;;;4.93;4.23;;;;;;;14.41;100.00;96315.53;5070041;27;104099;-63
2022/05/12 03:15:48;;;;;;;4.83;4.13;;;;;;;14.44;100.00;96320.34;5052276;27;105766;-63
2022/05/12 03:18:15;;;;;;;5.27;4.00;;;;;;;14.51;100.00;96310.91;5069594;27;101958;-62
2022/05/12 03:20:43;;;;;;;4.53;3.87;;;;;;;14.46;100.00;96304.78;5052936;27;102342;-63
2022/05/12 03:23:13;;;;;;;4.20;3.80;;;;;;;14.35;100.00;96317.44;5070380;27;103251;-62
2022/05/12 03:25:41;;;;;;;4.87;3.80;;;;;;;14.29;100.00;96321.19;5071457;27;102238;-63
2022/05/12 03:28:08;;;;;;;4.40;4.00;;;;;;;14.22;100.00;96323.38;5071299;27;102373;-62
2022/05/12 03:30:34;;;;;;;4.87;4.20;;;;;;;14.05;100.00;96332.75;5051882;27;106122;-63
2022/05/12 03:33:01;;;;;;;7.00;4.40;;;;;;;14.01;100.00;96331.72;5074823;27;101931;-62
2022/05/12 03:35:28;;;;;;;5.50;5.00;;;;;;;14.03;100.00;96329.56;5069775;27;102669;-63
2022/05/12 03:37:55;;;;;;;6.33;4.87;;;;;;;13.86;100.00;96326.44;5070701;27;101898;-63
2022/05/12 03:40:24;;;;;;;6.47;4.90;;;;;;;13.73;100.00;96325.13;5052357;27;103802;-62
2022/05/12 03:42:52;;;;;;;5.53;4.90;;;;;;;13.87;100.00;96330.69;5051909;27;105056;-63
2022/05/12 03:45:22;;;;;;;6.23;5.17;;;;;;;13.84;100.00;96331.25;5069657;27;102229;-62
2022/05/12 03:47:50;;;;;;;6.97;5.80;;;;;;;13.89;100.00;96333.91;5070496;27;103671;-63
2022/05/12 03:50:19;;;;;;;7.63;6.03;;;;;;;13.93;100.00;96324.25;5069824;27;102977;-63
2022/05/12 03:52:47;;;;;;;5.63;5.03;;;;;;;14.02;100.00;96333.31;5070539;27;101981;-63
2022/05/12 03:55:16;;;;;;;5.60;5.10;;;;;;;14.05;100.00;96336.25;5073143;27;102691;-63
2022/05/12 03:57:46;;;;;;;7.03;5.03;;;;;;;14.00;100.00;96336.25;5067656;27;102298;-63
2022/05/12 04:00:18;;;;;;;5.70;5.20;;;;;;;13.96;100.00;96343.22;5051978;27;104678;-63
2022/05/12 04:02:45;;;;;;;6.77;5.80;;;;;;;14.06;100.00;96345.88;5070225;27;102759;-63
2022/05/12 04:05:12;;;;;;;10.13;5.30;;;;;;;13.84;100.00;96347.28;5070376;27;101831;-62
2022/05/12 04:07:43;;;;;;;5.87;5.27;;;;;;;13.83;100.00;96356.34;5051858;27;105221;-63
2022/05/12 04:10:11;;;;;;;6.90;5.20;;;;;;;14.13;100.00;96375.81;5051670;27;104282;-63
2022/05/12 04:12:38;;;;;;;7.60;4.87;;;;;;;14.51;100.00;96391.19;5052109;27;102011;-62
2022/05/12 04:15:19;;;;;;;5.30;4.80;;;;;;;14.83;100.00;96390.78;5051451;27;105475;-62
2022/05/12 04:17:56;;;;;;;7.47;4.67;;;;;;;14.92;100.00;96397.94;5054953;27;103748;-63
2022/05/12 04:20:53;;;;;;;5.70;4.23;;;;;;;14.97;100.00;96410.50;5070858;27;102330;-63
2022/05/12 04:23:19;;;;;;;7.30;4.73;;;;;;;15.07;100.00;96411.25;5050404;27;106109;-63
2022/05/12 04:25:47;;;;;;;5.10;4.50;;;;;;;15.45;100.00;96412.34;5051160;27;102050;-62
2022/05/12 04:28:14;;;;;;;5.50;5.00;;;;;;;15.67;100.00;96412.69;5051897;27;105138;-62
2022/05/12 04:30:49;;;;;;;5.33;4.33;;;;;;;15.86;100.00;96416.28;5050680;27;105253;-63
2022/05/12 04:36:02;;;;;;;5.23;4.23;;;;;;;16.43;100.00;96429.66;5053423;27;102299;-63
2022/05/12 04:38:28;;;;;;;4.93;4.00;;;;;;;16.86;100.00;96431.28;5051203;27;105237;-63
2022/05/12 04:40:57;;;;;;;5.40;3.93;;;;;;;17.03;100.00;96423.53;5055511;27;101699;-62
2022/05/12 04:43:29;;;;;;;6.03;3.90;;;;;;;17.32;100.00;96426.84;5070000;27;102830;-63
2022/05/12 04:46:08;;;;;;;3.83;3.47;;;;;;;17.50;100.00;96439.53;5069756;27;102041;-63
2022/05/12 04:48:51;;;;;;;5.27;4.10;;;;;;;17.52;100.00;96437.34;5073190;27;104319;-63
2022/05/12 04:51:24;;;;;;;3.97;3.67;;;;;;;17.57;100.00;96443.47;5056116;27;104397;-63
2022/05/12 04:53:53;;;;;;;4.97;3.63;;;;;;;17.65;100.00;96442.78;5073399;27;101963;-63
2022/05/12 04:56:23;;;;;;;5.53;4.20;;;;;;;17.75;100.00;96447.19;5055037;27;104637;-62
2022/05/12 04:58:51;;;;;;;3.60;3.23;;;;;;;17.87;100.00;96461.00;5054400;27;104898;-63
2022/05/12 05:01:23;;;;;;;3.83;3.53;;;;;;;17.96;100.00;96445.78;5058386;27;102335;-64
2022/05/12 05:03:56;;;;;;;5.57;3.77;;;;;;;17.99;100.00;96462.13;5073154;27;102865;-63
2022/05/12 05:06:26;;;;;;;4.47;3.97;;;;;;;18.01;100.00;96464.53;5073758;27;101745;-63
2022/05/12 05:08:58;;;;;;;5.50;3.57;;;;;;;18.07;100.00;96474.09;5073529;27;102891;-62
2022/05/12 05:11:33;;;;;;;4.17;3.50;;;;;;;18.14;100.00;96474.53;5072878;27;102553;-63
2022/05/12 05:14:02;;;;;;;4.17;3.50;;;;;;;18.17;100.00;96477.44;5073489;27;101772;-63
2022/05/12 05:17:00;;;;;;;6.93;4.00;;;;;;;18.08;100.00;96481.88;5073120;27;102869;-63
2022/05/12 05:19:33;;;;;;;4.23;3.67;;;;;;;18.14;100.00;96480.72;5072551;27;103132;-63
2022/05/12 05:22:08;;;;;;;3.93;3.33;;;;;;;18.18;100.00;96489.78;5073667;27;102056;-63
2022/05/12 05:24:40;;;;;;;5.00;3.80;;;;;;;18.30;100.00;96486.63;5054059;27;105774;-63
2022/05/12 05:27:10;;;;;;;5.00;3.80;;;;;;;18.35;100.00;96490.06;5051593;27;102103;-63
2022/05/12 05:29:45;;;;;;;5.73;4.03;;;;;;;18.41;100.00;96493.44;5032886;27;102801;-63
2022/05/12 05:32:20;;;;;;;4.57;3.70;;;;;;;18.58;100.00;96496.38;5031735;28;103174;-63
2022/05/12 05:34:56;;;;;;;5.00;3.63;;;;;;;18.69;100.00;96501.28;5032152;27;101985;-63
2022/05/12 05:37:26;;;;;;;6.10;3.73;;;;;;;18.88;100.00;96502.00;5028856;27;105831;-63
2022/05/12 05:39:58;;;;;;;5.73;3.40;;;;;;;19.08;100.00;96503.47;5051981;27;102858;-63
2022/05/12 05:42:43;;;;;;;7.33;3.80;;;;;;;19.38;100.00;96505.53;5051099;27;102115;-63
2022/05/12 05:45:22;;;;;;;4.70;3.20;;;;;;;19.71;100.00;96502.38;4991962;28;104697;-63
2022/05/12 05:48:12;;;;;;;4.43;3.23;;;;;;;20.01;100.00;96514.34;4987755;28;102951;-63
2022/05/12 05:53:48;;;;;;;3.57;3.27;;;;;;;20.31;100.00;96519.03;4953252;28;103171;-63
2022/05/12 05:59:00;;;;;;;4.23;3.67;;;;;;;20.34;100.00;96531.94;4959520;28;104583;-63
2022/05/12 06:01:42;;;;;;;5.87;3.90;;;;;;;20.38;100.00;96532.91;5002820;28;103021;-63
2022/05/12 06:04:13;;;;;;;5.37;3.43;;;;;;;20.55;100.00;96530.31;4996191;28;101939;-63
2022/05/12 06:06:42;;;;;;;5.63;3.70;;;;;;;20.74;100.00;96536.28;4992657;28;104892;-63
2022/05/12 06:09:09;;;;;;;5.87;3.80;;;;;;;20.90;100.00;96532.09;4990848;28;102768;-63
2022/05/12 06:11:43;;;;;;;7.87;3.50;;;;;;;20.92;100.00;96533.38;4984616;28;101940;-63
2022/05/12 06:14:10;;;;;;;5.40;3.90;;;;;;;20.80;100.00;96540.44;4968500;28;105045;-63
2022/05/12 06:16:46;;;;;;;4.43;4.00;;;;;;;20.83;100.00;96545.25;4983330;28;102217;-63
2022/05/12 06:19:14;;;;;;;4.07;3.67;;;;;;;20.89;100.00;96552.13;5004925;28;102167;-63
2022/05/12 06:21:41;;;;;;;3.90;3.50;;;;;;;21.12;100.00;96550.94;5017573;27;101889;-63
2022/05/12 06:24:09;;;;;;;5.97;3.53;;;;;;;21.28;100.00;96550.22;5046344;27;102319;-62
2022/05/12 06:26:36;;;;;;;5.03;3.00;;;;;;;21.37;100.00;96553.72;5050648;27;104491;-63
2022/05/12 06:29:03;;;;;;;4.90;3.33;;;;;;;21.36;100.00;96554.84;5041202;27;103833;-63
2022/05/12 06:31:32;;;;;;;3.83;3.47;;;;;;;21.42;100.00;96556.28;5030049;28;102007;-63
2022/05/12 06:34:00;;;;;;;3.67;3.00;;;;;;;21.51;100.00;96570.66;5038627;27;105520;-64
2022/05/12 06:36:29;;;;;;;3.73;3.10;;;;;;;21.56;100.00;96572.41;5048995;27;103121;-63
2022/05/12 06:38:56;;;;;;;7.33;2.77;;;;;;;21.71;100.00;96577.41;5050219;27;104933;-63
2022/05/12 06:41:40;;;;;;;5.90;3.03;;;;;;;21.78;100.00;96577.72;5029269;28;107107;-63
2022/05/12 06:44:07;;;;;;;2.83;2.63;;;;;;;21.73;100.00;96570.56;5037681;27;101722;-63
2022/05/12 06:46:43;;;;;;;3.37;2.90;;;;;;;21.80;100.00;96583.66;5045193;27;104193;-63
2022/05/12 06:49:10;;;;;;;6.20;2.97;;;;;;;21.80;100.00;96583.66;5029276;28;105328;-63
2022/05/12 06:52:03;;;;;;;4.50;2.90;;;;;;;22.02;99.43;96583.50;5029887;28;101830;-63
2022/05/12 06:54:30;;;;;;;4.20;2.57;;;;;;;22.28;96.39;96581.59;5030104;28;103941;-63
2022/05/12 06:56:58;;;;;;;5.63;2.80;;;;;;;22.54;94.86;96585.09;5032583;28;102358;-63
2022/05/12 06:59:24;;;;;;;2.73;2.13;;;;;;;22.53;84.93;96583.50;5029488;28;105087;-63
2022/05/12 07:01:52;;;;;;;2.93;2.53;;;;;;;22.51;84.27;96589.25;5028386;28;105783;-63
2022/05/12 07:04:18;;;;;;;3.60;2.40;;;;;;;22.68;85.00;96591.94;5029524;28;101789;-63
2022/05/12 07:06:45;;;;;;;3.57;2.20;;;;;;;22.48;78.45;96586.38;5029140;28;105015;-63
2022/05/12 07:09:18;;;;;;;4.13;2.13;;;;;;;22.44;79.57;96586.22;5028792;28;105402;-63
2022/05/12 07:11:45;;;;;;;5.73;2.40;;;;;;;22.47;78.41;96591.03;5029120;27;101805;-63
2022/05/12 07:14:14;;;;;;;3.80;2.10;;;;;;;22.58;76.13;96596.91;5030646;28;102711;-63
2022/05/12 07:16:42;;;;;;;4.30;2.50;;;;;;;22.45;74.83;96598.66;5031646;28;106606;-63
2022/05/12 07:19:08;;;;;;;3.40;2.13;;;;;;;22.42;74.15;96601.19;5029257;28;105245;-63
2022/05/12 07:27:05;;;;;;;2.63;2.00;;;;;;;22.48;73.13;96600.75;5049964;27;102401;-63
2022/05/12 07:29:34;;;;;;;2.87;2.37;;;;;;;22.66;76.40;96605.03;5047039;27;103469;-63
2022/05/12 07:32:01;;;;;;;4.60;2.13;;;;;;;22.89;75.18;96602.91;5030498;27;102350;-63
2022/05/12 07:34:28;;;;;;;2.90;2.20;;;;;;;22.90;68.37;96599.88;5030168;27;103101;-63
2022/05/12 07:36:55;;;;;;;3.50;2.27;;;;;;;23.17;67.70;96598.66;5028143;28;105388;-63
2022/05/12 07:39:28;;;;;;;7.63;2.30;;;;;;;23.49;68.32;96600.81;5047999;27;101830;-63
2022/05/12 07:41:56;;;;;;;2.47;2.17;;;;;;;23.66;61.36;96600.72;5050202;27;102669;-63
2022/05/12 07:44:31;;;;;;;2.73;2.30;;;;;;;23.54;61.05;96598.69;5050482;27;101811;-63
2022/05/12 07:47:00;;;;;;;3.20;1.90;;;;;;;23.32;60.00;96611.75;5050380;27;102345;-63
2022/05/12 07:49:29;;;;;;;5.83;2.13;;;;;;;23.08;63.71;96604.13;5049697;27;104527;-63
2022/05/12 07:51:57;;;;;;;3.67;2.13;;;;;;;23.16;64.41;96616.06;5032971;27;102209;-63
2022/05/12 07:54:25;;;;;;;4.30;2.03;;;;;;;23.12;65.15;96612.41;5028649;28;106180;-63
2022/05/12 07:56:52;;;;;;;2.60;2.00;;;;;;;23.53;64.95;96610.66;5028070;28;106522;-63
2022/05/12 07:59:19;;;;;;;3.20;2.20;;;;;;;23.62;61.77;96603.28;5029830;28;101928;-63
2022/05/12 08:01:47;;;;;;;6.50;2.10;;;;;;;23.27;60.85;96609.19;5031423;28;103772;-63
2022/05/12 08:04:14;;;;;;;2.40;2.20;;;;;;;23.27;64.04;96617.34;5030225;27;101744;-63
2022/05/12 08:06:41;;;;;;;4.20;2.03;;;;;;;23.08;63.61;96612.25;5028541;28;104067;-63
2022/05/12 08:09:09;;;;;;;2.63;1.87;;;;;;;23.04;62.01;96613.25;5028983;28;102935;-63
2022/05/12 08:11:37;;;;;;;2.73;1.90;;;;;;;22.96;65.03;96608.63;5030064;27;101927;-63
2022/05/12 08:14:06;;;;;;;4.07;2.20;;;;;;;22.91;63.25;96616.94;5030018;28;102459;-63
2022/05/12 08:16:33;;;;;;;4.63;2.10;;;;;;;23.11;64.05;96610.81;5029234;28;102455;-63
2022/05/12 08:19:00;;;;;;;2.20;2.00;;;;;;;23.19;68.37;96607.31;5028395;28;101770;-63
2022/05/12 08:21:27;;;;;;;3.87;2.20;;;;;;;23.20;62.45;96609.69;5028281;27;104241;-63
2022/05/12 08:23:54;;;;;;;2.10;1.90;;;;;;;23.62;62.54;96607.91;5025361;27;105414;-63
2022/05/12 08:26:23;;;;;;;3.30;2.13;;;;;;;23.46;64.46;96609.59;5031877;28;105856;-63
2022/05/12 08:28:51;;;;;;;5.10;2.03;;;;;;;23.27;64.40;96607.28;5012278;28;102662;-63
2022/05/12 08:31:21;;;;;;;3.70;2.37;;;;;;;23.41;64.31;96605.16;5013051;28;101876;-63
2022/05/12 08:33:48;;;;;;;3.40;2.03;;;;;;;23.89;64.82;96596.59;5011489;28;105366;-63
2022/05/12 08:36:15;;;;;;;2.83;2.40;;;;;;;23.78;63.01;96603.50;5010950;28;105354;-63
2022/05/12 08:38:44;;;;;;;4.90;2.23;;;;;;;24.25;58.98;96603.03;5012805;28;101846;-63
2022/05/12 08:41:20;;;;;;;5.47;2.33;;;;;;;24.17;60.29;96600.38;5012649;28;102903;-63
2022/05/12 08:43:57;;;;;;;12.90;2.23;;;;;;;23.82;60.34;96613.38;5012537;28;102595;-63
2022/05/12 08:46:26;;;;;;;3.00;2.30;;;;;;;24.05;60.36;96614.72;5016138;28;101750;-63
2022/05/12 08:49:05;;;;;;;3.47;2.07;;;;;;;24.34;58.05;96601.06;5012035;28;102841;-63
2022/05/12 08:51:51;;;;;;;4.60;2.00;;;;;;;24.76;58.17;96599.09;5020786;28;101854;-63
2022/05/12 08:54:22;;;;;;;2.87;2.30;;;;;;;24.48;52.42;96603.50;5042069;27;105184;-63
2022/05/12 08:56:53;;;;;;;4.37;2.00;;;;;;;24.34;53.45;96605.69;5032010;28;102539;-63
2022/05/12 08:59:22;;;;;;;4.80;2.10;;;;;;;24.45;52.84;96602.25;5031351;28;101888;-63
2022/05/12 09:02:06;;;;;;;2.77;2.10;;;;;;;24.90;52.30;96592.22;5031412;28;105122;-63
2022/05/12 09:04:56;;;;;;;3.40;2.03;;;;;;;24.96;50.41;96601.75;5032270;28;102551;-63
2022/05/12 09:07:28;;;;;;;4.10;1.80;;;;;;;24.41;49.56;96614.13;5051642;27;101964;-63
2022/05/12 09:10:03;;;;;;;2.63;1.97;;;;;;;24.34;49.02;96605.69;5031824;28;102525;-63
2022/05/12 09:12:42;;;;;;;2.70;2.10;;;;;;;24.50;49.97;96603.94;5032682;28;101875;-62
2022/05/12 09:15:13;;;;;;;3.70;1.80;;;;;;;24.22;47.48;96595.56;5032574;27;103966;-63
2022/05/12 09:17:46;;;;;;;4.67;2.30;;;;;;;24.20;45.83;96594.31;5041563;27;104302;-63
2022/05/12 09:20:13;;;;;;;2.93;1.67;;;;;;;24.41;46.29;96606.75;5052588;27;101823;-63
2022/05/12 09:22:42;;;;;;;3.77;1.90;;;;;;;24.18;44.81;96588.38;5054583;27;104014;-63
2022/05/12 09:25:10;;;;;;;3.10;1.80;;;;;;;24.19;45.14;96592.72;5093158;27;102847;-63
2022/05/12 09:27:39;;;;;;;4.07;1.93;;;;;;;24.48;45.92;96600.78;5093458;27;101838;-63
2022/05/12 09:30:11;;;;;;;5.27;1.70;;;;;;;24.88;45.96;96601.84;5096305;27;102374;-63
2022/05/12 09:32:40;;;;;;;4.50;1.70;;;;;;;24.72;45.25;96596.25;5093438;27;101943;-63
2022/05/12 09:35:25;;;;;;;2.93;1.77;;;;;;;24.96;43.82;96590.09;5073173;27;103743;-63
2022/05/12 09:37:53;;;;;;;2.47;1.80;;;;;;;25.69;44.57;96583.59;5069729;27;105445;-63
2022/05/12 09:40:32;;;;;;;3.43;1.80;;;;;;;25.52;43.70;96587.38;5090445;27;103384;-63
2022/05/12 09:43:02;;;;;;;2.27;2.00;;;;;;;25.80;45.14;96595.63;5073825;27;104444;-63
2022/05/12 09:45:33;;;;;;;3.27;1.70;;;;;;;25.27;45.72;96582.22;5091121;27;102589;-63
2022/05/12 09:48:21;;;;;;;1.90;1.80;;;;;;;25.41;44.72;96590.88;5088943;27;101994;-63
2022/05/12 09:50:49;;;;;;;2.70;1.80;;;;;;;25.55;44.95;96591.34;5072348;27;106682;-63
2022/05/12 09:53:26;;;;;;;2.83;2.03;;;;;;;25.58;44.86;96587.94;5072385;27;103908;-63
2022/05/12 09:56:04;;;;;;;4.50;1.70;;;;;;;25.47;44.73;96597.69;5065129;27;102890;-63
2022/05/12 09:58:36;;;;;;;2.13;1.90;;;;;;;25.78;43.60;96592.47;5041497;27;105377;-63
2022/05/12 10:01:17;;;;;;;4.10;1.93;;;;;;;25.88;43.17;96597.44;5053273;27;101737;-63
2022/05/12 10:09:19;;;;;;;2.63;1.70;;;;;;;25.73;44.64;96588.03;5072506;27;102231;-63
2022/05/12 10:15:54;;;;;;;2.50;1.90;;;;;;;25.67;44.74;96580.44;5068871;27;102246;-63
2022/05/12 10:18:30;;;;;;;3.87;2.13;;;;;;;25.78;43.64;96578.84;5050097;27;102101;-63
2022/05/12 10:21:12;;;;;;;4.40;1.83;;;;;;;25.53;43.16;96588.16;5053284;27;106293;-63
2022/05/12 10:23:51;;;;;;;4.10;2.20;;;;;;;25.62;43.93;96575.22;5069073;27;101979;-63
2022/05/12 10:26:24;;;;;;;2.37;1.90;;;;;;;25.89;42.91;96578.00;5054002;27;105687;-63
2022/05/12 10:28:55;;;;;;;2.20;1.80;;;;;;;26.04;43.19;96571.13;5053381;27;104494;-63
2022/05/12 10:31:34;;;;;;;5.70;1.80;;;;;;;26.12;41.63;96570.16;5072312;27;101675;-66
2022/05/12 10:34:13;;;;;;;2.87;2.03;;;;;;;26.42;43.13;96577.69;5053430;27;104833;-63
2022/05/12 10:36:51;;;;;;;2.17;1.83;;;;;;;27.05;42.21;96568.53;5051974;27;105170;-63
2022/05/12 10:39:26;;;;;;;6.37;1.87;;;;;;;26.84;40.80;96567.19;5040032;27;102443;-62
2022/05/12 10:45:34;;;;;;;4.37;2.10;;;;;;;26.59;42.07;96563.00;5051083;27;101870;-63
2022/05/12 10:48:21;;;;;;;3.20;1.90;;;;;;;26.86;40.77;96562.97;5033327;27;105403;-62
2022/05/12 10:51:20;;;;;;;3.87;1.90;;;;;;;26.65;41.55;96567.06;5051049;27;102838;-63
2022/05/12 10:54:06;;;;;;;3.73;1.83;;;;;;;26.02;42.69;96571.44;5038257;27;102172;-63
2022/05/12 10:56:40;;;;;;;3.50;2.10;;;;;;;25.92;41.65;96562.94;5072151;27;102270;-63
2022/05/12 10:59:51;;;;;;;3.70;1.73;;;;;;;26.43;41.31;96568.34;5052568;27;104052;-63
2022/05/12 11:02:47;;;;;;;3.07;1.80;;;;;;;26.94;40.51;96561.22;5053446;27;101782;-63
2022/05/12 11:05:30;;;;;;;2.27;1.90;;;;;;;26.92;40.59;96560.78;5072212;27;102287;-62
2022/05/12 11:08:06;;;;;;;3.67;2.10;;;;;;;27.06;41.69;96547.47;5074318;27;104957;-63
2022/05/12 11:11:03;;;;;;;3.43;2.00;;;;;;;26.54;40.90;96547.63;5071895;27;102579;-63
2022/05/12 11:13:37;;;;;;;2.63;2.00;;;;;;;27.20;41.09;96553.34;5071349;27;103347;-63
2022/05/12 11:16:13;;;;;;;3.20;1.90;;;;;;;27.18;41.79;96552.91;5053202;27;101994;-63
2022/05/12 11:18:46;;;;;;;2.43;1.93;;;;;;;27.10;40.23;96545.63;5051493;27;102307;-63
2022/05/12 11:21:19;;;;;;;2.63;2.20;;;;;;;27.03;40.00;96543.50;5057398;27;102003;-63
2022/05/12 11:24:25;;;;;;;5.40;2.07;;;;;;;27.84;39.29;96537.34;5052869;27;101984;-63
2022/05/12 11:27:21;;;;;;;3.83;2.20;;;;;;;27.80;39.42;96528.28;5053151;27;103660;-64
2022/05/12 11:33:39;;;;;;;2.27;2.03;;;;;;;27.35;37.94;96527.97;5049407;27;102120;-64
2022/05/12 11:36:09;;;;;;;2.93;1.90;;;;;;;27.76;37.84;96516.44;5068945;27;105296;-64
2022/05/12 11:38:56;;;;;;;2.40;2.20;;;;;;;28.11;37.57;96512.53;5071616;27;101679;-64
2022/05/12 11:42:10;;;;;;;4.63;2.00;;;;;;;28.21;39.11;96522.13;5071437;27;102595;-64
2022/05/12 11:44:46;;;;;;;4.17;1.87;;;;;;;28.28;36.95;96514.06;5070782;27;102798;-63
2022/05/12 11:47:48;;;;;;;2.80;2.10;;;;;;;27.61;37.52;96519.97;5071293;27;101691;-63
2022/05/12 11:50:45;;;;;;;5.40;2.30;;;;;;;27.78;37.38;96504.03;5071075;27;102448;-63
2022/05/12 11:53:17;;;;;;;3.83;2.47;;;;;;;27.93;37.44;96516.06;5070517;27;102517;-63
2022/05/12 11:56:05;;;;;;;4.07;2.10;;;;;;;27.43;37.74;96508.66;5074747;27;101700;-63
2022/05/12 11:58:40;;;;;;;4.40;2.00;;;;;;;27.73;36.00;96492.56;5030342;27;104107;-64
2022/05/12 12:01:53;;;;;;;4.80;2.20;;;;;;;28.11;37.90;96500.84;5032019;27;101778;-63
2022/05/12 12:04:46;;;;;;;4.73;2.00;;;;;;;27.87;36.23;96495.63;5033335;27;102625;-63
2022/05/12 12:07:43;;;;;;;2.63;1.80;;;;;;;27.76;36.08;96494.56;5062899;27;105527;-63
2022/05/12 12:10:58;;;;;;;3.30;2.00;;;;;;;27.95;36.93;96492.69;5070538;27;101794;-64
2022/05/12 12:13:36;;;;;;;4.80;1.93;;;;;;;27.89;36.18;96488.66;5070605;27;102998;-64